Time;durP1;ratioP1;P1;durP2;ratioP2;P2;SDS_P1;SDS_P2;PMS_P1;PMS_P2;Temp;Humidity;BMP_temperature;BMP_pressure;BME280_temperature;BME280_humidity;BME280_pressure;Samples;Min_cycle;Max_cycle;Signal;HPM_P1;HPM_P2
2023/09/26 00:01:44;;;;;;;27.05;4.70;;;;;;;14.73;100.00;99785.63;5059386;28;20036;-86
2023/09/26 00:04:10;;;;;;;25.42;4.47;;;;;;;14.67;100.00;99760.59;5085025;28;20031;-87
2023/09/26 00:06:38;;;;;;;22.85;4.18;;;;;;;14.64;100.00;99766.28;5050191;28;20028;-91
2023/09/26 00:09:10;;;;;;;31.52;4.97;;;;;;;14.64;100.00;99758.31;5058668;28;20035;-89
2023/09/26 00:11:36;;;;;;;26.85;4.28;;;;;;;14.66;100.00;99764.25;5077561;28;20077;-86
2023/09/26 00:14:04;;;;;;;20.15;4.07;;;;;;;14.64;100.00;99768.94;5063277;28;20093;-90
2023/09/26 00:16:34;;;;;;;21.75;3.65;;;;;;;14.60;100.00;99765.84;5085008;28;20051;-90
2023/09/26 00:18:59;;;;;;;22.23;4.38;;;;;;;14.58;100.00;99762.53;5079706;28;20032;-89
2023/09/26 00:21:26;;;;;;;34.75;5.30;;;;;;;14.51;100.00;99758.97;5063560;27;20545;-89
2023/09/26 00:23:51;;;;;;;25.58;4.97;;;;;;;14.56;100.00;99748.59;5071707;28;20128;-91
2023/09/26 00:26:21;;;;;;;25.83;3.83;;;;;;;14.54;100.00;99753.28;5095589;28;20044;-89
2023/09/26 00:28:47;;;;;;;31.65;4.22;;;;;;;14.50;100.00;99752.00;5076345;28;20036;-89
2023/09/26 00:31:17;;;;;;;28.92;4.18;;;;;;;14.51;100.00;99764.28;5057955;28;20039;-88
2023/09/26 00:33:46;;;;;;;29.65;3.90;;;;;;;14.50;100.00;99765.31;5075989;28;20028;-91
2023/09/26 00:36:14;;;;;;;22.55;3.55;;;;;;;14.46;100.00;99748.09;5078337;28;20107;-90
2023/09/26 00:38:49;;;;;;;19.30;3.65;;;;;;;14.40;100.00;99757.63;5080520;28;20043;-90
2023/09/26 00:41:15;;;;;;;23.02;3.92;;;;;;;14.42;100.00;99755.63;5067829;28;20480;-90
2023/09/26 00:43:46;;;;;;;23.02;4.75;;;;;;;14.45;100.00;99765.03;5089941;28;20100;-90
2023/09/26 00:46:14;;;;;;;30.75;4.75;;;;;;;14.39;100.00;99753.31;5058948;28;20438;-88
2023/09/26 00:48:41;;;;;;;25.73;4.57;;;;;;;14.42;100.00;99744.97;5078368;28;20032;-90
2023/09/26 00:51:12;;;;;;;26.45;4.40;;;;;;;14.46;100.00;99750.75;5078246;28;20032;-90
2023/09/26 00:53:45;;;;;;;27.23;4.80;;;;;;;14.46;100.00;99756.06;5089513;28;20039;-91
2023/09/26 00:56:12;;;;;;;24.70;3.95;;;;;;;14.49;100.00;99745.06;5091461;28;20035;-88
2023/09/26 00:58:40;;;;;;;32.00;4.47;;;;;;;14.47;100.00;99749.72;5089798;28;20020;-89
2023/09/26 01:01:12;;;;;;;24.70;4.50;;;;;;;14.44;100.00;99750.94;5052636;28;20122;-88
2023/09/26 01:03:38;;;;;;;21.27;4.00;;;;;;;14.38;100.00;99759.66;5095787;27;20093;-88
2023/09/26 01:06:13;;;;;;;23.48;3.35;;;;;;;14.43;100.00;99748.47;5097261;27;20042;-88
2023/09/26 01:08:39;;;;;;;22.35;4.30;;;;;;;14.38;100.00;99730.41;5076898;28;20044;-90
2023/09/26 01:11:11;;;;;;;28.23;3.88;;;;;;;14.44;100.00;99745.63;5074765;28;20112;-89
2023/09/26 01:13:37;;;;;;;28.60;5.20;;;;;;;14.50;100.00;99750.19;5075089;28;20046;-87
2023/09/26 01:16:17;;;;;;;23.55;3.97;;;;;;;14.54;100.00;99729.34;5071450;28;20043;-87
2023/09/26 01:18:45;;;;;;;24.88;3.72;;;;;;;14.53;100.00;99727.72;5075692;28;20054;-88
2023/09/26 01:21:12;;;;;;;23.15;5.13;;;;;;;14.52;100.00;99708.25;5083471;28;20035;-87
2023/09/26 01:23:41;;;;;;;20.15;3.17;;;;;;;14.56;100.00;99716.69;5078030;28;20114;-86
2023/09/26 01:26:07;;;;;;;26.25;3.63;;;;;;;14.58;100.00;99704.03;5095981;28;20059;-87
2023/09/26 01:28:35;;;;;;;28.40;4.45;;;;;;;14.57;100.00;99697.06;5075618;28;20089;-86
2023/09/26 01:31:15;;;;;;;26.15;3.90;;;;;;;14.55;100.00;99701.75;5094764;28;20533;-87
2023/09/26 01:33:41;;;;;;;31.95;4.80;;;;;;;14.54;100.00;99689.47;5081359;28;20123;-89
2023/09/26 01:36:08;;;;;;;21.83;3.97;;;;;;;14.56;100.00;99700.75;5071626;28;20039;-87
2023/09/26 01:38:37;;;;;;;23.67;3.78;;;;;;;14.51;100.00;99687.19;5093184;28;20047;-87
2023/09/26 01:41:05;;;;;;;29.40;4.60;;;;;;;14.60;100.00;99685.22;5084865;28;20020;-87
2023/09/26 01:43:31;;;;;;;26.58;3.67;;;;;;;14.58;100.00;99687.25;5080357;28;20608;-86
2023/09/26 01:45:57;;;;;;;28.23;5.78;;;;;;;14.54;100.00;99683.34;5066840;28;20031;-90
2023/09/26 01:48:22;;;;;;;20.70;3.22;;;;;;;14.47;100.00;99685.91;5072839;28;20043;-86
2023/09/26 01:50:48;;;;;;;24.67;3.42;;;;;;;14.42;100.00;99667.03;5071193;28;20035;-86
2023/09/26 01:53:18;;;;;;;26.38;3.50;;;;;;;14.42;100.00;99662.56;5107654;28;20043;-87
2023/09/26 01:55:49;;;;;;;24.35;3.70;;;;;;;14.36;100.00;99650.84;5091694;28;20476;-89
2023/09/26 01:58:18;;;;;;;26.55;3.42;;;;;;;14.35;100.00;99667.81;5081337;28;20035;-87
2023/09/26 02:00:44;;;;;;;27.75;4.50;;;;;;;14.35;100.00;99667.81;5073038;28;20043;-88
2023/09/26 02:03:10;;;;;;;14.82;3.33;;;;;;;14.34;100.00;99673.31;5084046;28;20074;-87
2023/09/26 02:05:36;;;;;;;23.52;3.47;;;;;;;14.37;100.00;99678.25;5076283;28;20059;-88
2023/09/26 02:08:02;;;;;;;20.40;3.35;;;;;;;14.31;100.00;99668.38;5077380;28;20036;-86
2023/09/26 02:10:29;;;;;;;19.38;2.95;;;;;;;14.33;100.00;99659.22;5092113;28;20101;-91
2023/09/26 02:12:55;;;;;;;24.75;3.70;;;;;;;14.37;100.00;99656.97;5089043;28;20031;-88
2023/09/26 02:15:22;;;;;;;13.85;2.38;;;;;;;14.34;100.00;99650.22;5090798;28;20543;-88
2023/09/26 02:17:50;;;;;;;13.38;2.53;;;;;;;14.33;100.00;99659.22;5085220;28;20039;-89
2023/09/26 02:20:18;;;;;;;12.95;2.75;;;;;;;14.44;100.00;99649.91;5088977;28;20183;-85
2023/09/26 02:22:45;;;;;;;13.00;2.25;;;;;;;14.44;100.00;99631.28;5073317;28;20027;-86
2023/09/26 02:25:12;;;;;;;9.82;1.55;;;;;;;14.42;100.00;99629.81;5075496;28;20177;-89
2023/09/26 02:27:39;;;;;;;13.63;1.90;;;;;;;14.47;100.00;99635.41;5080183;28;20036;-90
2023/09/26 02:30:09;;;;;;;12.85;1.75;;;;;;;14.45;100.00;99624.97;5081546;28;20035;-88
2023/09/26 02:32:38;;;;;;;7.90;1.63;;;;;;;14.42;100.00;99621.84;5058516;28;20043;-88
2023/09/26 02:35:06;;;;;;;10.10;1.40;;;;;;;14.50;100.00;99621.72;5100121;28;20039;-89
2023/09/26 02:37:32;;;;;;;11.07;2.10;;;;;;;14.50;100.00;99619.91;5098173;28;20391;-88
2023/09/26 02:39:58;;;;;;;16.25;1.73;;;;;;;14.44;100.00;99609.19;5096525;28;20038;-88
2023/09/26 02:42:24;;;;;;;9.65;1.98;;;;;;;14.52;100.00;99607.22;5081185;28;20035;-88
2023/09/26 02:44:50;;;;;;;7.35;1.27;;;;;;;14.51;100.00;99600.25;5081484;28;20123;-87
2023/09/26 02:47:16;;;;;;;8.73;1.88;;;;;;;14.53;100.00;99592.09;5068698;28;20039;-87
2023/09/26 02:49:41;;;;;;;16.00;1.80;;;;;;;14.55;100.00;99600.72;5077950;28;20036;-88
2023/09/26 02:52:08;;;;;;;12.30;1.95;;;;;;;14.58;100.00;99594.19;5076102;28;20039;-85
2023/09/26 02:54:33;;;;;;;17.35;2.72;;;;;;;14.58;100.00;99594.19;5077158;28;20166;-88
2023/09/26 02:56:59;;;;;;;13.90;2.53;;;;;;;14.60;100.00;99597.47;5078983;28;20035;-85
2023/09/26 02:59:25;;;;;;;14.40;2.53;;;;;;;14.60;100.00;99593.00;5061969;28;20051;-90
2023/09/26 03:01:52;;;;;;;17.63;3.53;;;;;;;14.63;100.00;99587.28;5074740;28;20023;-84
2023/09/26 03:04:17;;;;;;;15.52;2.83;;;;;;;14.62;100.00;99587.47;5096665;28;20036;-90
2023/09/26 03:06:43;;;;;;;21.20;3.30;;;;;;;14.68;100.00;99581.38;5075645;28;20046;-90
2023/09/26 03:09:09;;;;;;;18.35;2.78;;;;;;;14.66;100.00;99574.59;5096761;28;20027;-87
2023/09/26 03:11:35;;;;;;;18.40;3.00;;;;;;;14.65;100.00;99555.19;5065652;28;20479;-88
2023/09/26 03:14:04;;;;;;;17.80;3.55;;;;;;;14.72;100.00;99557.84;5078212;28;20036;-90
2023/09/26 03:16:30;;;;;;;16.52;2.70;;;;;;;14.71;100.00;99559.72;5072104;28;20443;-88
2023/09/26 03:18:55;;;;;;;16.48;3.13;;;;;;;14.69;100.00;99561.75;5048993;27;20035;-90
2023/09/26 03:21:22;;;;;;;19.70;3.08;;;;;;;14.63;100.00;99547.38;5097640;28;20043;-88
2023/09/26 03:23:49;;;;;;;15.93;3.00;;;;;;;14.70;100.00;99557.25;5073648;28;20039;-87
2023/09/26 03:26:15;;;;;;;21.65;3.33;;;;;;;14.66;100.00;99551.50;5077131;28;20102;-88
2023/09/26 03:28:41;;;;;;;20.15;3.13;;;;;;;14.70;100.00;99542.09;5073872;28;20027;-85
2023/09/26 03:31:11;;;;;;;20.38;3.03;;;;;;;14.68;100.00;99548.63;5074723;28;20035;-89
2023/09/26 03:33:38;;;;;;;24.08;3.72;;;;;;;14.66;100.00;99548.84;5072586;28;20047;-86
2023/09/26 03:36:04;;;;;;;27.35;4.30;;;;;;;14.68;100.00;99552.13;5077923;28;20258;-90
2023/09/26 03:38:34;;;;;;;30.33;4.60;;;;;;;14.73;100.00;99540.91;5078197;28;20028;-92
2023/09/26 03:41:07;;;;;;;23.40;3.30;;;;;;;14.71;100.00;99532.28;5077951;28;20036;-89
2023/09/26 03:43:35;;;;;;;18.77;3.35;;;;;;;14.67;100.00;99526.53;5079149;28;20417;-89
2023/09/26 03:46:05;;;;;;;27.35;3.92;;;;;;;14.66;100.00;99532.03;5108341;28;20513;-89
2023/09/26 03:48:32;;;;;;;22.33;3.38;;;;;;;14.68;100.00;99524.69;5057141;28;20034;-87
2023/09/26 03:51:11;;;;;;;19.42;3.65;;;;;;;14.75;100.00;99514.91;5077167;28;20038;-90
2023/09/26 03:53:38;;;;;;;21.55;3.30;;;;;;;14.68;100.00;99508.75;5078840;28;20073;-89
2023/09/26 03:56:04;;;;;;;29.17;3.80;;;;;;;14.65;100.00;99496.66;5083726;28;20468;-85
2023/09/26 03:58:31;;;;;;;28.95;3.80;;;;;;;14.69;100.00;99500.56;5077774;28;20036;-88
2023/09/26 04:01:08;;;;;;;25.88;3.75;;;;;;;14.71;100.00;99490.56;5092142;28;20040;-87
2023/09/26 04:03:34;;;;;;;21.58;3.20;;;;;;;14.69;100.00;99478.47;5089077;28;20044;-86
2023/09/26 04:06:02;;;;;;;28.73;3.47;;;;;;;14.69;100.00;99465.16;5080519;28;20108;-90
2023/09/26 04:08:28;;;;;;;21.83;3.47;;;;;;;14.70;100.00;99466.81;5076830;27;20039;-86
2023/09/26 04:10:54;;;;;;;22.50;3.45;;;;;;;14.69;100.00;99460.66;5082633;28;20353;-86
2023/09/26 04:13:20;;;;;;;18.92;3.35;;;;;;;14.65;100.00;99462.09;5081844;27;20046;-88
2023/09/26 04:15:45;;;;;;;22.65;3.85;;;;;;;14.63;100.00;99442.84;5076933;28;20044;-87
2023/09/26 04:18:11;;;;;;;20.08;4.10;;;;;;;14.66;100.00;99449.59;5073786;28;20543;-87
2023/09/26 04:20:38;;;;;;;30.95;4.78;;;;;;;14.62;100.00;99441.22;5073608;27;20043;-87
2023/09/26 04:23:04;;;;;;;19.10;3.40;;;;;;;14.67;100.00;99438.75;5075428;28;20043;-87
2023/09/26 04:25:31;;;;;;;18.77;3.10;;;;;;;14.73;100.00;99447.81;5084199;28;20040;-86
2023/09/26 04:27:57;;;;;;;35.00;5.10;;;;;;;14.76;100.00;99434.91;5075231;28;20047;-86
2023/09/26 04:30:23;;;;;;;21.02;3.58;;;;;;;14.74;100.00;99429.00;5078566;28;20024;-84
2023/09/26 04:32:49;;;;;;;23.35;4.10;;;;;;;14.70;100.00;99421.59;5089570;28;20672;-84
2023/09/26 04:35:15;;;;;;;26.98;4.20;;;;;;;14.67;100.00;99414.03;5085200;28;20032;-88
2023/09/26 04:37:41;;;;;;;20.60;3.65;;;;;;;14.64;100.00;99429.34;5075555;28;20044;-86
2023/09/26 04:40:10;;;;;;;23.83;4.97;;;;;;;14.60;100.00;99417.47;5073642;28;20043;-86
2023/09/26 04:42:41;;;;;;;23.02;3.03;;;;;;;14.62;100.00;99412.75;5078156;27;20043;-87
2023/09/26 04:45:07;;;;;;;21.50;3.97;;;;;;;14.57;100.00;99412.50;5078947;28;20046;-85
2023/09/26 04:47:34;;;;;;;17.25;3.28;;;;;;;14.56;100.00;99397.59;5074810;28;20151;-87
2023/09/26 04:49:59;;;;;;;25.25;3.50;;;;;;;14.54;100.00;99415.56;5075040;28;20035;-85
2023/09/26 04:52:25;;;;;;;20.00;2.58;;;;;;;14.47;100.00;99410.22;5076399;28;20028;-86
2023/09/26 04:54:51;;;;;;;12.77;2.17;;;;;;;14.46;100.00;99421.06;5076292;28;20024;-89
2023/09/26 04:57:17;;;;;;;18.65;3.00;;;;;;;14.48;100.00;99427.00;5092066;28;20040;-89
2023/09/26 04:59:42;;;;;;;12.77;2.53;;;;;;;14.45;100.00;99422.06;5055501;28;20064;-85
2023/09/26 05:02:08;;;;;;;15.60;2.38;;;;;;;14.38;100.00;99420.19;5086222;28;20023;-85
2023/09/26 05:04:34;;;;;;;12.82;2.28;;;;;;;14.35;100.00;99409.94;5071089;28;20031;-87
2023/09/26 05:07:00;;;;;;;11.10;2.00;;;;;;;14.32;100.00;99409.50;5070652;28;20429;-79
2023/09/26 05:09:25;;;;;;;13.15;1.70;;;;;;;14.27;100.00;99404.78;5091762;28;20085;-86
2023/09/26 05:11:51;;;;;;;7.13;1.45;;;;;;;14.26;100.00;99401.31;5072860;28;20031;-85
2023/09/26 05:14:17;;;;;;;9.88;1.55;;;;;;;14.23;100.00;99395.56;5085154;28;20035;-86
2023/09/26 05:16:42;;;;;;;6.07;0.90;;;;;;;14.21;100.00;99408.22;5061551;28;20039;-83
2023/09/26 05:19:08;;;;;;;6.13;1.02;;;;;;;14.19;100.00;99407.59;5083629;28;20483;-88
2023/09/26 05:21:40;;;;;;;4.88;1.10;;;;;;;14.17;100.00;99394.50;5073204;28;20113;-88
2023/09/26 05:24:09;;;;;;;8.52;1.50;;;;;;;14.21;100.00;99411.69;5090357;28;20031;-90
2023/09/26 05:26:34;;;;;;;6.22;1.27;;;;;;;14.18;100.00;99422.72;5094186;28;20484;-86
2023/09/26 05:29:03;;;;;;;4.60;1.20;;;;;;;14.16;100.00;99416.75;5080686;28;20122;-86
2023/09/26 05:31:31;;;;;;;8.32;1.20;;;;;;;14.19;100.00;99418.22;5091511;28;20114;-87
2023/09/26 05:33:58;;;;;;;5.38;0.73;;;;;;;14.16;100.00;99416.75;5080334;28;20039;-86
2023/09/26 05:36:24;;;;;;;7.85;1.42;;;;;;;14.10;100.00;99428.16;5078388;28;20035;-84
2023/09/26 05:38:49;;;;;;;4.15;1.05;;;;;;;14.03;100.00;99414.81;5074298;28;20043;-87
2023/09/26 05:41:15;;;;;;;4.10;0.90;;;;;;;13.97;100.00;99427.06;5085203;28;20062;-89
2023/09/26 05:43:41;;;;;;;5.25;0.95;;;;;;;13.96;100.00;99424.59;5068117;28;20369;-87
2023/09/26 05:46:07;;;;;;;6.82;0.90;;;;;;;13.92;100.00;99436.63;5073674;28;20036;-87
2023/09/26 05:48:34;;;;;;;10.93;2.00;;;;;;;13.94;100.00;99438.06;5098218;28;20051;-86
2023/09/26 05:51:03;;;;;;;7.78;1.25;;;;;;;13.84;100.00;99421.66;5071533;28;20417;-85
2023/09/26 05:53:29;;;;;;;2.33;0.65;;;;;;;13.74;100.00;99414.00;5084654;28;20032;-86
2023/09/26 05:55:55;;;;;;;4.93;0.77;;;;;;;13.66;100.00;99424.75;5090119;28;20051;-86
2023/09/26 05:58:21;;;;;;;3.53;0.70;;;;;;;13.61;100.00;99430.63;5095455;28;20114;-87
2023/09/26 06:00:48;;;;;;;6.50;0.77;;;;;;;13.58;100.00;99438.97;5090852;28;20040;-85
2023/09/26 06:03:16;;;;;;;4.25;1.10;;;;;;;13.57;100.00;99439.97;5079435;28;20047;-86
2023/09/26 06:05:43;;;;;;;4.63;0.85;;;;;;;13.51;100.00;99446.84;5088896;28;20039;-85
2023/09/26 06:08:09;;;;;;;7.43;0.82;;;;;;;13.50;100.00;99447.84;5094714;28;20035;-89
2023/09/26 06:10:35;;;;;;;6.47;1.05;;;;;;;13.48;100.00;99447.19;5082118;28;20032;-86
2023/09/26 06:13:01;;;;;;;3.92;1.23;;;;;;;13.46;100.00;99458.00;5080576;28;20059;-84
2023/09/26 06:15:27;;;;;;;6.22;1.00;;;;;;;13.44;100.00;99461.88;5080917;28;20247;-87
2023/09/26 06:17:59;;;;;;;4.00;0.80;;;;;;;13.48;100.00;99458.66;5077317;28;20537;-87
2023/09/26 06:20:29;;;;;;;5.07;0.70;;;;;;;13.47;100.00;99467.59;5095646;28;20066;-87
2023/09/26 06:22:56;;;;;;;4.72;1.00;;;;;;;13.48;100.00;99457.81;5080386;28;20066;-85
2023/09/26 06:25:25;;;;;;;5.25;0.90;;;;;;;13.44;100.00;99469.84;5089895;28;20102;-82
2023/09/26 06:27:51;;;;;;;4.95;0.95;;;;;;;13.46;100.00;99468.63;5108020;28;20133;-80
2023/09/26 06:30:17;;;;;;;5.18;0.70;;;;;;;13.47;100.00;99480.06;5079327;28;20042;-79
2023/09/26 06:32:43;;;;;;;4.95;0.88;;;;;;;13.43;100.00;99471.66;5091396;28;20035;-79
2023/09/26 06:35:10;;;;;;;2.92;0.70;;;;;;;13.40;100.00;99478.16;5085722;28;20035;-81
2023/09/26 06:37:35;;;;;;;6.38;0.68;;;;;;;13.42;100.00;99485.13;5094485;27;20036;-81
2023/09/26 06:40:04;;;;;;;4.03;0.60;;;;;;;13.43;100.00;99495.53;5113615;27;20034;-80
2023/09/26 06:42:32;;;;;;;5.82;1.45;;;;;;;13.44;100.00;99509.66;5104126;28;20031;-81
2023/09/26 06:44:58;;;;;;;5.20;0.80;;;;;;;13.47;100.00;99536.63;5101198;28;20089;-79
2023/09/26 06:47:27;;;;;;;3.78;1.17;;;;;;;13.46;100.00;99539.47;5097795;28;20027;-80
2023/09/26 06:49:56;;;;;;;5.32;0.75;;;;;;;13.33;100.00;99530.34;5110447;27;20067;-82
2023/09/26 06:52:22;;;;;;;4.75;1.25;;;;;;;13.13;100.00;99533.56;5111710;27;20059;-80
2023/09/26 06:54:49;;;;;;;3.45;0.70;;;;;;;13.14;100.00;99527.25;5069615;28;20070;-81
2023/09/26 06:57:20;;;;;;;4.03;0.98;;;;;;;13.05;100.00;99533.66;5068297;28;20028;-81
2023/09/26 06:59:49;;;;;;;4.85;0.77;;;;;;;13.03;100.00;99547.09;5119657;27;20035;-79
2023/09/26 07:02:16;;;;;;;5.80;0.73;;;;;;;12.96;100.00;99545.38;5102457;28;20032;-82
2023/09/26 07:04:42;;;;;;;3.78;0.95;;;;;;;12.97;100.00;99555.78;5078162;28;20032;-80
2023/09/26 07:07:08;;;;;;;5.82;0.77;;;;;;;12.95;100.00;99549.03;5075389;27;20019;-82
2023/09/26 07:09:34;;;;;;;5.03;0.90;;;;;;;12.98;100.00;99556.63;5099587;28;20111;-82
2023/09/26 07:12:00;;;;;;;4.53;0.73;;;;;;;12.99;100.00;99556.44;5074209;28;20031;-82
2023/09/26 07:14:32;;;;;;;2.70;0.77;;;;;;;13.01;100.00;99553.59;5072538;28;20031;-82
2023/09/26 07:16:58;;;;;;;4.25;0.65;;;;;;;12.95;100.00;99551.69;5070737;27;20040;-81
2023/09/26 07:19:23;;;;;;;5.05;0.88;;;;;;;12.95;100.00;99559.66;5100518;27;20031;-82
2023/09/26 07:21:49;;;;;;;3.08;0.63;;;;;;;12.97;100.00;99569.06;5090812;28;20438;-81
2023/09/26 07:24:15;;;;;;;4.93;0.77;;;;;;;12.99;100.00;99575.00;5088512;28;20043;-80
2023/09/26 07:26:41;;;;;;;4.90;0.90;;;;;;;13.01;100.00;99570.31;5092209;28;20031;-80
2023/09/26 07:29:08;;;;;;;5.32;0.73;;;;;;;13.06;100.00;99591.00;5087243;28;20043;-81
2023/09/26 07:31:35;;;;;;;4.38;0.70;;;;;;;13.14;100.00;99598.06;5091401;28;20131;-82
2023/09/26 07:34:00;;;;;;;3.35;0.98;;;;;;;13.18;100.00;99599.34;5100958;28;20538;-84
2023/09/26 07:36:26;;;;;;;2.78;0.52;;;;;;;13.23;100.00;99594.34;5093190;28;20039;-82
2023/09/26 07:38:52;;;;;;;4.30;0.80;;;;;;;13.28;100.00;99586.63;5084827;28;20051;-84
2023/09/26 07:41:18;;;;;;;5.57;0.95;;;;;;;13.31;100.00;99588.09;5089491;27;20034;-84
2023/09/26 07:43:43;;;;;;;2.75;0.60;;;;;;;13.39;100.00;99592.50;5086659;28;20042;-82
2023/09/26 07:46:10;;;;;;;8.93;0.70;;;;;;;13.46;100.00;99580.13;5088833;28;20036;-82
2023/09/26 07:48:36;;;;;;;4.93;0.80;;;;;;;13.52;100.00;99590.03;5086822;28;20031;-83
2023/09/26 07:51:03;;;;;;;3.08;0.50;;;;;;;13.60;100.00;99585.63;5070835;28;20035;-83
2023/09/26 07:53:29;;;;;;;5.28;0.90;;;;;;;13.68;100.00;99585.50;5096241;28;20139;-83
2023/09/26 07:55:56;;;;;;;1.38;0.40;;;;;;;13.77;100.00;99583.59;5082095;28;20111;-83
2023/09/26 07:58:22;;;;;;;3.25;0.68;;;;;;;13.84;100.00;99578.34;5118736;27;20144;-83
2023/09/26 08:00:48;;;;;;;3.17;0.75;;;;;;;13.86;100.00;99577.16;5088453;28;20043;-81
2023/09/26 08:03:13;;;;;;;4.95;0.70;;;;;;;13.89;100.00;99582.09;5086914;28;20042;-80
2023/09/26 08:05:39;;;;;;;3.83;0.60;;;;;;;13.92;100.00;99594.16;5090529;28;20035;-81
2023/09/26 08:08:05;;;;;;;6.72;0.70;;;;;;;13.93;100.00;99603.78;5098200;28;20164;-81
2023/09/26 08:10:31;;;;;;;5.90;0.63;;;;;;;13.98;100.00;99609.34;5067928;28;20028;-79
2023/09/26 08:12:58;;;;;;;11.85;1.08;;;;;;;14.01;100.00;99606.31;5075918;28;20499;-79
2023/09/26 08:15:25;;;;;;;7.07;1.00;;;;;;;14.05;100.00;99616.59;5105155;27;20032;-80
2023/09/26 08:17:50;;;;;;;6.32;0.95;;;;;;;14.06;100.00;99626.19;5100719;27;20035;-79
2023/09/26 08:20:17;;;;;;;12.32;0.80;;;;;;;14.10;100.00;99630.94;5108050;27;20034;-81
2023/09/26 08:22:43;;;;;;;4.35;0.60;;;;;;;14.14;100.00;99637.53;5089228;28;20205;-82
2023/09/26 08:25:09;;;;;;;6.05;0.93;;;;;;;14.19;100.00;99647.59;5084146;28;20067;-80
2023/09/26 08:27:35;;;;;;;3.78;0.70;;;;;;;14.21;100.00;99655.38;5072134;28;20036;-80
2023/09/26 08:30:02;;;;;;;4.20;0.75;;;;;;;14.26;100.00;99656.47;5049978;28;20061;-80
2023/09/26 08:32:28;;;;;;;6.70;1.05;;;;;;;14.26;100.00;99663.63;5103085;28;20031;-79
2023/09/26 08:34:57;;;;;;;5.63;1.00;;;;;;;14.30;100.00;99667.53;5090190;28;20089;-82
2023/09/26 08:37:22;;;;;;;10.02;1.27;;;;;;;14.30;100.00;99674.72;5085799;28;20043;-81
2023/09/26 08:39:48;;;;;;;12.52;1.80;;;;;;;14.29;100.00;99676.53;5090713;28;20032;-80
2023/09/26 08:42:17;;;;;;;4.57;1.02;;;;;;;14.29;100.00;99679.19;5090535;28;20032;-78
2023/09/26 08:44:43;;;;;;;11.95;2.08;;;;;;;14.33;100.00;99676.97;5091735;28;20031;-78
2023/09/26 08:47:09;;;;;;;15.98;1.52;;;;;;;14.32;100.00;99678.81;5092466;28;20552;-78
2023/09/26 08:49:38;;;;;;;17.60;2.10;;;;;;;14.32;100.00;99683.28;5066311;28;20028;-78
2023/09/26 08:52:04;;;;;;;10.73;1.60;;;;;;;14.30;100.00;99685.34;5065417;28;20093;-77
2023/09/26 08:54:30;;;;;;;11.35;1.77;;;;;;;14.35;100.00;99691.72;5108910;28;20054;-81
2023/09/26 08:56:57;;;;;;;11.45;1.77;;;;;;;14.42;100.00;99701.59;5075304;28;20027;-77
2023/09/26 08:59:22;;;;;;;13.38;1.50;;;;;;;14.37;100.00;99696.84;5092259;28;20038;-79
2023/09/26 09:01:50;;;;;;;12.48;2.22;;;;;;;14.45;100.00;99711.88;5100924;28;20044;-78
2023/09/26 09:04:18;;;;;;;9.80;1.60;;;;;;;14.53;100.00;99703.78;5085312;28;20119;-79
2023/09/26 09:06:44;;;;;;;8.98;1.30;;;;;;;14.52;100.00;99702.94;5106217;28;20040;-80
2023/09/26 09:09:13;;;;;;;10.90;1.88;;;;;;;14.50;100.00;99697.00;5087591;28;20032;-79
2023/09/26 09:11:39;;;;;;;8.57;1.80;;;;;;;14.54;100.00;99702.75;5104258;28;20422;-78
2023/09/26 09:14:06;;;;;;;12.07;1.90;;;;;;;14.61;100.00;99703.66;5104943;28;20035;-79
2023/09/26 09:16:31;;;;;;;6.38;1.17;;;;;;;14.66;100.00;99700.44;5076384;28;20032;-78
2023/09/26 09:18:58;;;;;;;8.30;1.58;;;;;;;14.60;100.00;99702.03;5068104;28;20964;-79
2023/09/26 09:21:30;;;;;;;11.45;1.60;;;;;;;14.63;100.00;99711.44;5099142;28;20115;-78
2023/09/26 09:24:01;;;;;;;8.20;1.35;;;;;;;14.71;100.00;99707.84;5074588;28;20035;-78
2023/09/26 09:26:33;;;;;;;9.95;1.70;;;;;;;14.73;100.00;99711.13;5037135;28;20042;-78
2023/09/26 09:29:20;;;;;;;12.80;1.77;;;;;;;14.71;100.00;99694.53;5068101;28;20029;-78
2023/09/26 09:31:47;;;;;;;8.38;1.27;;;;;;;14.69;100.00;99707.19;5055125;28;20044;-77
2023/09/26 09:34:15;;;;;;;11.30;1.75;;;;;;;14.74;100.00;99715.44;5067324;28;20066;-77
2023/09/26 09:36:40;;;;;;;8.27;0.80;;;;;;;14.74;100.00;99720.75;5074522;28;20098;-78
2023/09/26 09:39:10;;;;;;;10.38;1.50;;;;;;;14.82;100.00;99722.50;5087228;28;20476;-77
2023/09/26 09:41:37;;;;;;;8.80;1.48;;;;;;;14.87;100.00;99720.09;5054796;28;20044;-77
2023/09/26 09:44:03;;;;;;;8.90;1.60;;;;;;;14.90;100.00;99722.38;5082242;28;20031;-76
2023/09/26 09:46:33;;;;;;;8.88;1.40;;;;;;;15.00;100.00;99719.41;5056608;28;20507;-78
2023/09/26 09:49:02;;;;;;;7.28;1.50;;;;;;;15.01;100.00;99718.38;5048204;28;20059;-78
2023/09/26 09:51:28;;;;;;;10.40;1.25;;;;;;;14.99;100.00;99712.41;5073624;28;20036;-78
2023/09/26 09:53:54;;;;;;;8.88;1.63;;;;;;;15.00;100.00;99712.22;5062775;28;20028;-77
2023/09/26 09:56:24;;;;;;;7.88;1.40;;;;;;;15.03;100.00;99713.69;5076077;28;20154;-78
2023/09/26 09:58:51;;;;;;;5.85;1.25;;;;;;;15.03;100.00;99729.66;5069793;28;20086;-77
2023/09/26 10:01:21;;;;;;;8.55;1.25;;;;;;;15.04;100.00;99722.47;5073800;28;20029;-78
2023/09/26 10:03:50;;;;;;;10.38;1.63;;;;;;;15.04;100.00;99731.28;5065790;28;20028;-77
2023/09/26 10:06:18;;;;;;;13.68;2.35;;;;;;;15.13;100.00;99719.50;5069019;28;20054;-78
2023/09/26 10:08:47;;;;;;;14.93;2.03;;;;;;;15.16;100.00;99728.91;5070808;28;20044;-78
2023/09/26 10:11:14;;;;;;;11.15;1.75;;;;;;;15.22;100.00;99738.00;5058168;28;20119;-79
2023/09/26 10:13:41;;;;;;;9.57;1.80;;;;;;;15.23;100.00;99739.63;5065040;28;20028;-80
2023/09/26 10:16:17;;;;;;;8.98;1.58;;;;;;;15.35;100.00;99734.63;5085764;28;20024;-79
2023/09/26 10:18:46;;;;;;;7.95;1.73;;;;;;;15.45;100.00;99739.59;5034812;28;20037;-79
2023/09/26 10:21:31;;;;;;;11.00;1.95;;;;;;;15.60;100.00;99736.81;5039297;28;20029;-79
2023/09/26 10:24:06;;;;;;;22.13;2.53;;;;;;;15.69;100.00;99734.81;5047040;28;20545;-79
2023/09/26 10:26:37;;;;;;;16.38;1.95;;;;;;;15.85;100.00;99742.50;5048943;28;20876;-78
2023/09/26 10:29:24;;;;;;;13.60;1.70;;;;;;;15.94;100.00;99737.81;5067157;28;20115;-79
2023/09/26 10:31:53;;;;;;;;;;;;;;;15.90;100.00;99727.75;5035830;28;20032;-78
2023/09/26 10:34:44;;;;;;;15.63;2.00;;;;;;;16.01;100.00;99735.22;5058469;28;19912;-79
2023/09/26 10:37:18;;;;;;;12.18;1.60;;;;;;;16.08;100.00;99733.44;5077107;28;20047;-80
2023/09/26 10:39:44;;;;;;;14.90;1.75;;;;;;;16.04;100.00;99737.50;5043525;28;20237;-78
2023/09/26 10:42:14;;;;;;;9.55;1.88;;;;;;;16.00;100.00;99725.59;5030797;28;20039;-79
2023/09/26 10:44:42;;;;;;;13.75;2.13;;;;;;;16.05;100.00;99730.34;5069874;28;20040;-79
2023/09/26 10:47:08;;;;;;;10.70;1.55;;;;;;;16.01;100.00;99731.75;5084002;28;20028;-79
2023/09/26 10:49:34;;;;;;;10.27;1.67;;;;;;;15.91;100.00;99735.56;5045355;28;20032;-79
2023/09/26 10:52:03;;;;;;;12.10;2.30;;;;;;;15.88;100.00;99735.94;5070207;28;20111;-80
2023/09/26 10:54:32;;;;;;;8.80;2.00;;;;;;;15.88;100.00;99734.13;5088124;28;20077;-79
2023/09/26 10:56:58;;;;;;;6.80;1.45;;;;;;;15.86;100.00;99740.69;5037036;28;20028;-79
2023/09/26 10:59:32;;;;;;;10.93;1.77;;;;;;;16.01;100.00;99742.44;5033690;28;20365;-79
2023/09/26 11:01:59;;;;;;;8.68;1.52;;;;;;;16.00;100.00;99741.59;5071425;28;20539;-78
2023/09/26 11:04:28;;;;;;;14.35;1.90;;;;;;;15.95;100.00;99744.81;5087526;28;20031;-78
2023/09/26 11:07:05;;;;;;;9.57;1.55;;;;;;;16.07;100.00;99749.63;5072949;28;20118;-79
2023/09/26 11:09:33;;;;;;;11.38;2.05;;;;;;;16.20;100.00;99743.50;5057321;28;20031;-81
2023/09/26 11:11:59;;;;;;;9.45;1.35;;;;;;;16.32;100.00;99751.78;5042827;28;20082;-77
2023/09/26 11:14:28;;;;;;;7.95;1.60;;;;;;;16.36;100.00;99750.34;5063088;28;20028;-78
2023/09/26 11:16:54;;;;;;;6.50;1.33;;;;;;;16.32;100.00;99741.94;5091097;28;20044;-79
2023/09/26 11:19:25;;;;;;;8.88;1.63;;;;;;;16.46;100.00;99747.31;5073559;28;20027;-79
2023/09/26 11:21:52;;;;;;;9.15;1.30;;;;;;;16.42;100.00;99749.53;5083346;28;20368;-77
2023/09/26 11:24:25;;;;;;;8.23;1.75;;;;;;;16.56;100.00;99754.94;5063775;28;20381;-79